sensor_id;sensor_type;location;lat;lon;timestamp;P1;durP1;ratioP1;P2;durP2;ratioP2
23388;SDS011;11867;51.198;11.966;2023-02-07T00:00:08;33.88;;;21.05;;
23388;SDS011;11867;51.198;11.966;2023-02-07T00:01:12;39.58;;;22.58;;
23388;SDS011;11867;51.198;11.966;2023-02-07T00:02:18;38.78;;;23.27;;
23388;SDS011;11867;51.198;11.966;2023-02-07T00:03:20;41.78;;;23.60;;
23388;SDS011;11867;51.198;11.966;2023-02-07T00:04:23;37.72;;;23.48;;
23388;SDS011;11867;51.198;11.966;2023-02-07T00:05:24;42.05;;;24.58;;
23388;SDS011;11867;51.198;11.966;2023-02-07T00:06:30;38.25;;;22.98;;
23388;SDS011;11867;51.198;11.966;2023-02-07T00:07:34;39.47;;;22.95;;
23388;SDS011;11867;51.198;11.966;2023-02-07T00:08:36;48.05;;;24.77;;
23388;SDS011;11867;51.198;11.966;2023-02-07T00:09:40;36.97;;;22.55;;
23388;SDS011;11867;51.198;11.966;2023-02-07T00:10:41;39.80;;;23.13;;
23388;SDS011;11867;51.198;11.966;2023-02-07T00:11:44;37.45;;;22.92;;
23388;SDS011;11867;51.198;11.966;2023-02-07T00:12:45;38.00;;;22.52;;
23388;SDS011;11867;51.198;11.966;2023-02-07T00:13:49;35.53;;;23.23;;
23388;SDS011;11867;51.198;11.966;2023-02-07T00:14:53;37.80;;;23.10;;
23388;SDS011;11867;51.198;11.966;2023-02-07T00:15:56;37.47;;;23.60;;
23388;SDS011;11867;51.198;11.966;2023-02-07T00:16:57;33.80;;;21.98;;
23388;SDS011;11867;51.198;11.966;2023-02-07T00:18:01;38.55;;;22.42;;
23388;SDS011;11867;51.198;11.966;2023-02-07T00:19:03;37.35;;;22.63;;
23388;SDS011;11867;51.198;11.966;2023-02-07T00:20:06;38.67;;;23.65;;
23388;SDS011;11867;51.198;11.966;2023-02-07T00:21:09;36.58;;;22.55;;
23388;SDS011;11867;51.198;11.966;2023-02-07T00:22:13;38.15;;;23.15;;
23388;SDS011;11867;51.198;11.966;2023-02-07T00:23:15;37.08;;;22.63;;
23388;SDS011;11867;51.198;11.966;2023-02-07T00:24:17;38.10;;;22.95;;
23388;SDS011;11867;51.198;11.966;2023-02-07T00:25:19;37.22;;;23.15;;
23388;SDS011;11867;51.198;11.966;2023-02-07T00:26:24;36.65;;;23.90;;
23388;SDS011;11867;51.198;11.966;2023-02-07T00:27:28;39.90;;;23.50;;
23388;SDS011;11867;51.198;11.966;2023-02-07T00:28:29;39.08;;;23.63;;
23388;SDS011;11867;51.198;11.966;2023-02-07T00:29:32;38.50;;;23.17;;
23388;SDS011;11867;51.198;11.966;2023-02-07T00:30:34;35.22;;;22.98;;
23388;SDS011;11867;51.198;11.966;2023-02-07T00:31:37;39.55;;;23.05;;
23388;SDS011;11867;51.198;11.966;2023-02-07T00:32:40;43.85;;;24.08;;
23388;SDS011;11867;51.198;11.966;2023-02-07T00:33:44;37.00;;;23.08;;
23388;SDS011;11867;51.198;11.966;2023-02-07T00:34:48;34.67;;;22.65;;
23388;SDS011;11867;51.198;11.966;2023-02-07T00:35:55;37.47;;;24.23;;
23388;SDS011;11867;51.198;11.966;2023-02-07T00:36:59;37.53;;;23.35;;
23388;SDS011;11867;51.198;11.966;2023-02-07T00:38:00;37.45;;;23.60;;
23388;SDS011;11867;51.198;11.966;2023-02-07T00:39:04;37.53;;;22.95;;
23388;SDS011;11867;51.198;11.966;2023-02-07T00:40:07;37.20;;;23.83;;
23388;SDS011;11867;51.198;11.966;2023-02-07T00:41:11;40.63;;;23.52;;
23388;SDS011;11867;51.198;11.966;2023-02-07T00:42:15;37.45;;;24.27;;
23388;SDS011;11867;51.198;11.966;2023-02-07T00:43:18;39.67;;;23.67;;
23388;SDS011;11867;51.198;11.966;2023-02-07T00:44:30;36.92;;;22.65;;
23388;SDS011;11867;51.198;11.966;2023-02-07T00:45:33;40.75;;;24.02;;
23388;SDS011;11867;51.198;11.966;2023-02-07T00:46:35;45.50;;;25.55;;
23388;SDS011;11867;51.198;11.966;2023-02-07T00:47:38;43.50;;;25.17;;
23388;SDS011;11867;51.198;11.966;2023-02-07T00:48:40;39.47;;;23.67;;
23388;SDS011;11867;51.198;11.966;2023-02-07T00:49:44;38.92;;;22.83;;
23388;SDS011;11867;51.198;11.966;2023-02-07T00:50:46;40.65;;;24.10;;
23388;SDS011;11867;51.198;11.966;2023-02-07T00:51:48;45.47;;;24.75;;
23388;SDS011;11867;51.198;11.966;2023-02-07T00:52:50;37.92;;;23.13;;
23388;SDS011;11867;51.198;11.966;2023-02-07T00:53:55;38.13;;;24.13;;
23388;SDS011;11867;51.198;11.966;2023-02-07T00:54:57;39.38;;;23.83;;
23388;SDS011;11867;51.198;11.966;2023-02-07T00:56:00;37.70;;;22.65;;
23388;SDS011;11867;51.198;11.966;2023-02-07T00:57:01;41.00;;;24.75;;
23388;SDS011;11867;51.198;11.966;2023-02-07T00:58:04;45.78;;;25.85;;
23388;SDS011;11867;51.198;11.966;2023-02-07T00:59:06;45.50;;;25.58;;
23388;SDS011;11867;51.198;11.966;2023-02-07T01:00:09;42.33;;;26.15;;
23388;SDS011;11867;51.198;11.966;2023-02-07T01:01:11;43.90;;;25.77;;
23388;SDS011;11867;51.198;11.966;2023-02-07T01:02:15;48.38;;;26.05;;
23388;SDS011;11867;51.198;11.966;2023-02-07T01:03:16;46.25;;;27.27;;
23388;SDS011;11867;51.198;11.966;2023-02-07T01:04:20;46.88;;;25.80;;
23388;SDS011;11867;51.198;11.966;2023-02-07T01:05:23;41.42;;;25.23;;
23388;SDS011;11867;51.198;11.966;2023-02-07T01:06:26;43.60;;;26.02;;
23388;SDS011;11867;51.198;11.966;2023-02-07T01:07:28;46.80;;;25.73;;
23388;SDS011;11867;51.198;11.966;2023-02-07T01:08:31;42.72;;;25.52;;
23388;SDS011;11867;51.198;11.966;2023-02-07T01:09:32;43.65;;;24.77;;
23388;SDS011;11867;51.198;11.966;2023-02-07T01:10:37;45.25;;;25.98;;
23388;SDS011;11867;51.198;11.966;2023-02-07T01:11:40;47.17;;;26.92;;
23388;SDS011;11867;51.198;11.966;2023-02-07T01:12:42;44.35;;;26.73;;
23388;SDS011;11867;51.198;11.966;2023-02-07T01:13:44;43.92;;;25.40;;
23388;SDS011;11867;51.198;11.966;2023-02-07T01:14:47;41.85;;;25.45;;
23388;SDS011;11867;51.198;11.966;2023-02-07T01:15:48;48.03;;;26.23;;
23388;SDS011;11867;51.198;11.966;2023-02-07T01:16:51;42.22;;;24.77;;
23388;SDS011;11867;51.198;11.966;2023-02-07T01:17:53;47.28;;;26.02;;
23388;SDS011;11867;51.198;11.966;2023-02-07T01:18:56;45.72;;;26.88;;
23388;SDS011;11867;51.198;11.966;2023-02-07T01:19:58;45.58;;;26.60;;
23388;SDS011;11867;51.198;11.966;2023-02-07T01:21:05;45.30;;;26.13;;
23388;SDS011;11867;51.198;11.966;2023-02-07T01:22:14;46.97;;;25.48;;
23388;SDS011;11867;51.198;11.966;2023-02-07T01:23:17;43.35;;;26.00;;
23388;SDS011;11867;51.198;11.966;2023-02-07T01:24:20;42.30;;;26.17;;
23388;SDS011;11867;51.198;11.966;2023-02-07T01:25:22;48.47;;;27.67;;
23388;SDS011;11867;51.198;11.966;2023-02-07T01:26:25;50.80;;;27.77;;
23388;SDS011;11867;51.198;11.966;2023-02-07T01:27:28;47.67;;;26.98;;
23388;SDS011;11867;51.198;11.966;2023-02-07T01:28:29;47.17;;;26.38;;
23388;SDS011;11867;51.198;11.966;2023-02-07T01:29:32;48.85;;;27.13;;
23388;SDS011;11867;51.198;11.966;2023-02-07T01:30:34;46.78;;;26.40;;
23388;SDS011;11867;51.198;11.966;2023-02-07T01:31:37;50.22;;;28.90;;
23388;SDS011;11867;51.198;11.966;2023-02-07T01:32:39;44.65;;;26.88;;
23388;SDS011;11867;51.198;11.966;2023-02-07T01:33:41;45.05;;;25.77;;
23388;SDS011;11867;51.198;11.966;2023-02-07T01:34:43;48.75;;;26.63;;
23388;SDS011;11867;51.198;11.966;2023-02-07T01:35:46;48.45;;;28.77;;
23388;SDS011;11867;51.198;11.966;2023-02-07T01:36:48;47.88;;;27.70;;
23388;SDS011;11867;51.198;11.966;2023-02-07T01:37:51;44.80;;;25.52;;
23388;SDS011;11867;51.198;11.966;2023-02-07T01:38:53;46.30;;;26.85;;
23388;SDS011;11867;51.198;11.966;2023-02-07T01:39:57;47.50;;;26.75;;
23388;SDS011;11867;51.198;11.966;2023-02-07T01:40:59;43.58;;;27.30;;
23388;SDS011;11867;51.198;11.966;2023-02-07T01:42:01;45.55;;;26.73;;
23388;SDS011;11867;51.198;11.966;2023-02-07T01:43:03;47.38;;;27.83;;
23388;SDS011;11867;51.198;11.966;2023-02-07T01:44:06;46.85;;;25.85;;
23388;SDS011;11867;51.198;11.966;2023-02-07T01:45:29;46.08;;;26.23;;
23388;SDS011;11867;51.198;11.966;2023-02-07T01:46:35;51.88;;;27.33;;
23388;SDS011;11867;51.198;11.966;2023-02-07T01:47:37;52.47;;;27.65;;
23388;SDS011;11867;51.198;11.966;2023-02-07T01:48:39;48.95;;;26.45;;
23388;SDS011;11867;51.198;11.966;2023-02-07T01:49:41;48.25;;;28.77;;
23388;SDS011;11867;51.198;11.966;2023-02-07T01:50:46;49.30;;;27.33;;
23388;SDS011;11867;51.198;11.966;2023-02-07T01:51:51;49.75;;;27.95;;
23388;SDS011;11867;51.198;11.966;2023-02-07T01:52:56;50.53;;;27.50;;
23388;SDS011;11867;51.198;11.966;2023-02-07T01:54:01;48.60;;;27.35;;
23388;SDS011;11867;51.198;11.966;2023-02-07T01:55:08;50.45;;;28.17;;
23388;SDS011;11867;51.198;11.966;2023-02-07T01:56:14;51.15;;;27.52;;
23388;SDS011;11867;51.198;11.966;2023-02-07T01:57:32;46.92;;;27.33;;
23388;SDS011;11867;51.198;11.966;2023-02-07T01:58:34;44.15;;;27.27;;
23388;SDS011;11867;51.198;11.966;2023-02-07T01:59:39;48.10;;;27.80;;
23388;SDS011;11867;51.198;11.966;2023-02-07T02:00:44;49.05;;;28.55;;
23388;SDS011;11867;51.198;11.966;2023-02-07T02:01:48;48.17;;;27.83;;
23388;SDS011;11867;51.198;11.966;2023-02-07T02:02:50;51.22;;;28.48;;
23388;SDS011;11867;51.198;11.966;2023-02-07T02:03:54;55.92;;;29.17;;
23388;SDS011;11867;51.198;11.966;2023-02-07T02:04:56;54.55;;;29.65;;
23388;SDS011;11867;51.198;11.966;2023-02-07T02:06:00;54.55;;;28.83;;
23388;SDS011;11867;51.198;11.966;2023-02-07T02:07:03;54.13;;;30.13;;
23388;SDS011;11867;51.198;11.966;2023-02-07T02:08:07;60.45;;;28.58;;
23388;SDS011;11867;51.198;11.966;2023-02-07T02:09:10;55.15;;;29.30;;
23388;SDS011;11867;51.198;11.966;2023-02-07T02:10:15;49.78;;;28.73;;
23388;SDS011;11867;51.198;11.966;2023-02-07T02:13:04;49.08;;;26.73;;
23388;SDS011;11867;51.198;11.966;2023-02-07T02:14:20;36.97;;;21.55;;
23388;SDS011;11867;51.198;11.966;2023-02-07T02:15:39;37.88;;;21.17;;
23388;SDS011;11867;51.198;11.966;2023-02-07T02:16:49;41.35;;;21.77;;
23388;SDS011;11867;51.198;11.966;2023-02-07T02:18:09;56.83;;;27.05;;
23388;SDS011;11867;51.198;11.966;2023-02-07T02:19:42;55.40;;;28.02;;
23388;SDS011;11867;51.198;11.966;2023-02-07T02:22:53;45.88;;;20.45;;
23388;SDS011;11867;51.198;11.966;2023-02-07T02:27:20;55.47;;;28.10;;
23388;SDS011;11867;51.198;11.966;2023-02-07T02:28:41;56.58;;;28.58;;
23388;SDS011;11867;51.198;11.966;2023-02-07T02:30:16;52.13;;;27.27;;
23388;SDS011;11867;51.198;11.966;2023-02-07T02:31:47;72.70;;;29.20;;
23388;SDS011;11867;51.198;11.966;2023-02-07T02:33:11;56.85;;;27.23;;
23388;SDS011;11867;51.198;11.966;2023-02-07T02:34:21;56.55;;;27.08;;
23388;SDS011;11867;51.198;11.966;2023-02-07T02:35:30;55.95;;;30.05;;
23388;SDS011;11867;51.198;11.966;2023-02-07T02:36:37;54.97;;;28.70;;
23388;SDS011;11867;51.198;11.966;2023-02-07T02:37:49;60.33;;;27.90;;
23388;SDS011;11867;51.198;11.966;2023-02-07T02:38:57;63.22;;;27.98;;
23388;SDS011;11867;51.198;11.966;2023-02-07T02:40:04;54.50;;;28.00;;
23388;SDS011;11867;51.198;11.966;2023-02-07T02:41:10;62.08;;;28.48;;
23388;SDS011;11867;51.198;11.966;2023-02-07T02:42:16;57.00;;;28.63;;
23388;SDS011;11867;51.198;11.966;2023-02-07T02:43:20;52.95;;;29.13;;
23388;SDS011;11867;51.198;11.966;2023-02-07T02:44:34;62.20;;;29.80;;
23388;SDS011;11867;51.198;11.966;2023-02-07T02:45:41;58.30;;;29.05;;
23388;SDS011;11867;51.198;11.966;2023-02-07T02:46:46;78.50;;;28.30;;
23388;SDS011;11867;51.198;11.966;2023-02-07T02:47:49;63.95;;;26.92;;
23388;SDS011;11867;51.198;11.966;2023-02-07T02:48:54;58.13;;;25.85;;
23388;SDS011;11867;51.198;11.966;2023-02-07T02:49:57;56.38;;;27.58;;
23388;SDS011;11867;51.198;11.966;2023-02-07T02:51:00;73.38;;;28.27;;
23388;SDS011;11867;51.198;11.966;2023-02-07T02:52:02;65.78;;;28.98;;
23388;SDS011;11867;51.198;11.966;2023-02-07T02:53:05;68.47;;;28.35;;
23388;SDS011;11867;51.198;11.966;2023-02-07T02:55:35;70.78;;;28.17;;
23388;SDS011;11867;51.198;11.966;2023-02-07T02:56:50;69.28;;;28.88;;
23388;SDS011;11867;51.198;11.966;2023-02-07T02:58:05;61.58;;;28.38;;
23388;SDS011;11867;51.198;11.966;2023-02-07T02:59:19;53.38;;;22.52;;
23388;SDS011;11867;51.198;11.966;2023-02-07T03:00:44;74.00;;;28.50;;
23388;SDS011;11867;51.198;11.966;2023-02-07T03:01:58;56.80;;;27.88;;
23388;SDS011;11867;51.198;11.966;2023-02-07T03:03:14;53.50;;;27.25;;
23388;SDS011;11867;51.198;11.966;2023-02-07T03:04:34;56.08;;;28.17;;
23388;SDS011;11867;51.198;11.966;2023-02-07T03:05:51;45.33;;;22.20;;
23388;SDS011;11867;51.198;11.966;2023-02-07T03:07:10;61.53;;;27.08;;
23388;SDS011;11867;51.198;11.966;2023-02-07T03:08:27;66.88;;;28.42;;
23388;SDS011;11867;51.198;11.966;2023-02-07T03:09:36;58.93;;;20.97;;
23388;SDS011;11867;51.198;11.966;2023-02-07T03:10:51;66.50;;;27.63;;
23388;SDS011;11867;51.198;11.966;2023-02-07T03:13:09;65.05;;;26.20;;
23388;SDS011;11867;51.198;11.966;2023-02-07T03:14:18;55.70;;;27.65;;
23388;SDS011;11867;51.198;11.966;2023-02-07T03:15:26;56.72;;;27.05;;
23388;SDS011;11867;51.198;11.966;2023-02-07T03:16:36;39.90;;;22.00;;
23388;SDS011;11867;51.198;11.966;2023-02-07T03:17:44;74.43;;;28.30;;
23388;SDS011;11867;51.198;11.966;2023-02-07T03:18:53;55.20;;;27.23;;
23388;SDS011;11867;51.198;11.966;2023-02-07T03:20:05;47.13;;;22.67;;
23388;SDS011;11867;51.198;11.966;2023-02-07T03:21:16;54.50;;;26.20;;
23388;SDS011;11867;51.198;11.966;2023-02-07T03:22:22;58.03;;;27.45;;
23388;SDS011;11867;51.198;11.966;2023-02-07T03:23:27;53.20;;;28.63;;
23388;SDS011;11867;51.198;11.966;2023-02-07T03:24:31;65.47;;;28.80;;
23388;SDS011;11867;51.198;11.966;2023-02-07T03:25:35;54.35;;;27.20;;
23388;SDS011;11867;51.198;11.966;2023-02-07T03:26:42;54.85;;;27.45;;
23388;SDS011;11867;51.198;11.966;2023-02-07T03:27:46;60.22;;;28.88;;
23388;SDS011;11867;51.198;11.966;2023-02-07T03:28:50;54.28;;;27.75;;
23388;SDS011;11867;51.198;11.966;2023-02-07T03:29:54;54.28;;;27.52;;
23388;SDS011;11867;51.198;11.966;2023-02-07T03:31:00;48.40;;;27.33;;
23388;SDS011;11867;51.198;11.966;2023-02-07T03:32:05;70.50;;;26.95;;
23388;SDS011;11867;51.198;11.966;2023-02-07T03:33:10;58.28;;;27.70;;
23388;SDS011;11867;51.198;11.966;2023-02-07T03:34:14;56.33;;;28.38;;
23388;SDS011;11867;51.198;11.966;2023-02-07T03:35:20;51.92;;;27.55;;
23388;SDS011;11867;51.198;11.966;2023-02-07T03:36:28;61.45;;;27.05;;
23388;SDS011;11867;51.198;11.966;2023-02-07T03:37:33;54.00;;;26.73;;
23388;SDS011;11867;51.198;11.966;2023-02-07T03:38:37;46.65;;;27.38;;
23388;SDS011;11867;51.198;11.966;2023-02-07T03:39:39;59.63;;;27.77;;
23388;SDS011;11867;51.198;11.966;2023-02-07T03:40:43;50.72;;;27.08;;
23388;SDS011;11867;51.198;11.966;2023-02-07T03:41:47;54.58;;;28.58;;
23388;SDS011;11867;51.198;11.966;2023-02-07T03:42:57;40.95;;;20.77;;
23388;SDS011;11867;51.198;11.966;2023-02-07T03:44:03;49.95;;;26.08;;
23388;SDS011;11867;51.198;11.966;2023-02-07T03:45:10;51.03;;;27.30;;
23388;SDS011;11867;51.198;11.966;2023-02-07T03:46:15;51.03;;;27.67;;
23388;SDS011;11867;51.198;11.966;2023-02-07T03:47:19;51.45;;;25.88;;
23388;SDS011;11867;51.198;11.966;2023-02-07T03:48:20;49.08;;;25.52;;
23388;SDS011;11867;51.198;11.966;2023-02-07T03:49:23;54.60;;;26.75;;
23388;SDS011;11867;51.198;11.966;2023-02-07T03:50:27;54.28;;;27.13;;
23388;SDS011;11867;51.198;11.966;2023-02-07T03:51:29;52.80;;;28.92;;
23388;SDS011;11867;51.198;11.966;2023-02-07T03:52:31;53.42;;;27.17;;
23388;SDS011;11867;51.198;11.966;2023-02-07T03:53:34;52.20;;;27.05;;
23388;SDS011;11867;51.198;11.966;2023-02-07T03:54:35;47.10;;;25.20;;
23388;SDS011;11867;51.198;11.966;2023-02-07T03:55:38;51.13;;;25.55;;
23388;SDS011;11867;51.198;11.966;2023-02-07T03:56:40;45.63;;;26.38;;
23388;SDS011;11867;51.198;11.966;2023-02-07T03:57:43;50.53;;;26.75;;
23388;SDS011;11867;51.198;11.966;2023-02-07T03:58:44;49.25;;;27.48;;
23388;SDS011;11867;51.198;11.966;2023-02-07T03:59:47;53.33;;;26.90;;
23388;SDS011;11867;51.198;11.966;2023-02-07T04:00:49;53.60;;;27.25;;
23388;SDS011;11867;51.198;11.966;2023-02-07T04:01:52;47.25;;;25.83;;
23388;SDS011;11867;51.198;11.966;2023-02-07T04:02:53;54.35;;;26.50;;
23388;SDS011;11867;51.198;11.966;2023-02-07T04:03:56;63.33;;;26.85;;
23388;SDS011;11867;51.198;11.966;2023-02-07T04:04:57;62.45;;;26.65;;
23388;SDS011;11867;51.198;11.966;2023-02-07T04:06:02;52.75;;;26.80;;
23388;SDS011;11867;51.198;11.966;2023-02-07T04:07:04;52.35;;;25.95;;
23388;SDS011;11867;51.198;11.966;2023-02-07T04:08:06;50.28;;;25.48;;
23388;SDS011;11867;51.198;11.966;2023-02-07T04:09:08;53.95;;;26.67;;
23388;SDS011;11867;51.198;11.966;2023-02-07T04:10:12;54.58;;;26.27;;
23388;SDS011;11867;51.198;11.966;2023-02-07T04:11:14;52.08;;;26.52;;
23388;SDS011;11867;51.198;11.966;2023-02-07T04:12:16;50.95;;;25.52;;
23388;SDS011;11867;51.198;11.966;2023-02-07T04:13:18;51.00;;;25.13;;
23388;SDS011;11867;51.198;11.966;2023-02-07T04:14:21;57.45;;;27.90;;
23388;SDS011;11867;51.198;11.966;2023-02-07T04:15:23;50.75;;;26.20;;
23388;SDS011;11867;51.198;11.966;2023-02-07T04:16:25;53.78;;;27.27;;
23388;SDS011;11867;51.198;11.966;2023-02-07T04:17:27;46.08;;;25.48;;
23388;SDS011;11867;51.198;11.966;2023-02-07T04:18:31;50.78;;;26.70;;
23388;SDS011;11867;51.198;11.966;2023-02-07T04:19:33;49.15;;;25.00;;
23388;SDS011;11867;51.198;11.966;2023-02-07T04:20:36;57.13;;;26.58;;
23388;SDS011;11867;51.198;11.966;2023-02-07T04:21:39;51.78;;;26.45;;
23388;SDS011;11867;51.198;11.966;2023-02-07T04:22:42;46.55;;;26.10;;
23388;SDS011;11867;51.198;11.966;2023-02-07T04:23:43;45.47;;;26.02;;
23388;SDS011;11867;51.198;11.966;2023-02-07T04:24:46;56.58;;;25.92;;
23388;SDS011;11867;51.198;11.966;2023-02-07T04:25:49;52.63;;;24.23;;
23388;SDS011;11867;51.198;11.966;2023-02-07T04:26:52;48.00;;;24.58;;
23388;SDS011;11867;51.198;11.966;2023-02-07T04:27:53;55.20;;;25.67;;
23388;SDS011;11867;51.198;11.966;2023-02-07T04:28:56;61.40;;;25.20;;
23388;SDS011;11867;51.198;11.966;2023-02-07T04:29:58;42.33;;;24.15;;
23388;SDS011;11867;51.198;11.966;2023-02-07T04:31:01;47.00;;;25.05;;
23388;SDS011;11867;51.198;11.966;2023-02-07T04:32:03;52.13;;;25.30;;
23388;SDS011;11867;51.198;11.966;2023-02-07T04:33:06;55.72;;;25.33;;
23388;SDS011;11867;51.198;11.966;2023-02-07T04:34:08;54.92;;;25.05;;
23388;SDS011;11867;51.198;11.966;2023-02-07T04:35:12;49.42;;;24.75;;
23388;SDS011;11867;51.198;11.966;2023-02-07T04:36:13;44.78;;;24.38;;
23388;SDS011;11867;51.198;11.966;2023-02-07T04:37:17;46.17;;;22.92;;
23388;SDS011;11867;51.198;11.966;2023-02-07T04:38:19;53.90;;;23.70;;
23388;SDS011;11867;51.198;11.966;2023-02-07T04:39:22;42.28;;;23.48;;
23388;SDS011;11867;51.198;11.966;2023-02-07T04:40:23;43.58;;;23.80;;
23388;SDS011;11867;51.198;11.966;2023-02-07T04:41:26;43.90;;;23.65;;
23388;SDS011;11867;51.198;11.966;2023-02-07T04:42:28;43.47;;;23.73;;
23388;SDS011;11867;51.198;11.966;2023-02-07T04:43:31;44.72;;;25.80;;
23388;SDS011;11867;51.198;11.966;2023-02-07T04:44:33;48.92;;;26.27;;
23388;SDS011;11867;51.198;11.966;2023-02-07T04:45:36;53.75;;;26.58;;
23388;SDS011;11867;51.198;11.966;2023-02-07T04:46:38;42.03;;;23.55;;
23388;SDS011;11867;51.198;11.966;2023-02-07T04:47:41;44.83;;;22.60;;
23388;SDS011;11867;51.198;11.966;2023-02-07T04:48:43;49.22;;;24.25;;
23388;SDS011;11867;51.198;11.966;2023-02-07T04:49:45;47.38;;;23.88;;
23388;SDS011;11867;51.198;11.966;2023-02-07T04:50:47;43.58;;;23.27;;
23388;SDS011;11867;51.198;11.966;2023-02-07T04:51:50;52.72;;;25.13;;
23388;SDS011;11867;51.198;11.966;2023-02-07T04:52:53;46.70;;;24.77;;
23388;SDS011;11867;51.198;11.966;2023-02-07T04:53:56;46.42;;;23.90;;
23388;SDS011;11867;51.198;11.966;2023-02-07T04:54:57;44.08;;;24.15;;
23388;SDS011;11867;51.198;11.966;2023-02-07T04:56:00;41.72;;;23.35;;
23388;SDS011;11867;51.198;11.966;2023-02-07T04:57:02;43.03;;;22.80;;
23388;SDS011;11867;51.198;11.966;2023-02-07T04:58:04;40.40;;;22.13;;
23388;SDS011;11867;51.198;11.966;2023-02-07T04:59:07;45.85;;;22.80;;
23388;SDS011;11867;51.198;11.966;2023-02-07T05:00:10;41.15;;;22.92;;
23388;SDS011;11867;51.198;11.966;2023-02-07T05:01:12;49.15;;;25.33;;
23388;SDS011;11867;51.198;11.966;2023-02-07T05:02:15;43.60;;;24.30;;
23388;SDS011;11867;51.198;11.966;2023-02-07T05:03:16;43.58;;;24.70;;
23388;SDS011;11867;51.198;11.966;2023-02-07T05:04:19;48.45;;;24.50;;
23388;SDS011;11867;51.198;11.966;2023-02-07T05:05:21;50.03;;;26.88;;
23388;SDS011;11867;51.198;11.966;2023-02-07T05:06:23;47.25;;;25.23;;
23388;SDS011;11867;51.198;11.966;2023-02-07T05:07:25;45.30;;;25.55;;
23388;SDS011;11867;51.198;11.966;2023-02-07T05:08:29;47.83;;;25.58;;
23388;SDS011;11867;51.198;11.966;2023-02-07T05:09:30;49.78;;;26.27;;
23388;SDS011;11867;51.198;11.966;2023-02-07T05:10:33;49.42;;;27.45;;
23388;SDS011;11867;51.198;11.966;2023-02-07T05:11:35;55.13;;;28.10;;
23388;SDS011;11867;51.198;11.966;2023-02-07T05:12:38;49.50;;;25.83;;
23388;SDS011;11867;51.198;11.966;2023-02-07T05:13:40;52.50;;;27.25;;
23388;SDS011;11867;51.198;11.966;2023-02-07T05:14:42;44.95;;;26.55;;
23388;SDS011;11867;51.198;11.966;2023-02-07T05:15:44;46.03;;;25.60;;
23388;SDS011;11867;51.198;11.966;2023-02-07T05:16:46;47.03;;;26.50;;
23388;SDS011;11867;51.198;11.966;2023-02-07T05:17:48;50.33;;;25.50;;
23388;SDS011;11867;51.198;11.966;2023-02-07T05:18:52;50.38;;;25.48;;
23388;SDS011;11867;51.198;11.966;2023-02-07T05:19:55;51.67;;;27.55;;
23388;SDS011;11867;51.198;11.966;2023-02-07T05:20:58;51.33;;;26.40;;
23388;SDS011;11867;51.198;11.966;2023-02-07T05:22:00;51.35;;;26.38;;
23388;SDS011;11867;51.198;11.966;2023-02-07T05:23:02;46.97;;;25.45;;
23388;SDS011;11867;51.198;11.966;2023-02-07T05:24:06;47.08;;;24.92;;
23388;SDS011;11867;51.198;11.966;2023-02-07T05:25:08;47.17;;;24.20;;
23388;SDS011;11867;51.198;11.966;2023-02-07T05:26:10;44.25;;;23.42;;
23388;SDS011;11867;51.198;11.966;2023-02-07T05:27:13;45.63;;;24.00;;
23388;SDS011;11867;51.198;11.966;2023-02-07T05:28:15;48.45;;;25.27;;
23388;SDS011;11867;51.198;11.966;2023-02-07T05:29:17;43.67;;;24.90;;
23388;SDS011;11867;51.198;11.966;2023-02-07T05:30:19;49.58;;;26.58;;
23388;SDS011;11867;51.198;11.966;2023-02-07T05:31:24;58.67;;;28.52;;
23388;SDS011;11867;51.198;11.966;2023-02-07T05:32:49;54.60;;;28.73;;
23388;SDS011;11867;51.198;11.966;2023-02-07T05:34:09;57.67;;;28.02;;
23388;SDS011;11867;51.198;11.966;2023-02-07T05:35:12;56.10;;;28.30;;
23388;SDS011;11867;51.198;11.966;2023-02-07T05:36:14;55.58;;;29.17;;
23388;SDS011;11867;51.198;11.966;2023-02-07T05:37:18;51.92;;;27.38;;
23388;SDS011;11867;51.198;11.966;2023-02-07T05:38:19;48.90;;;26.40;;
23388;SDS011;11867;51.198;11.966;2023-02-07T05:39:24;52.03;;;27.05;;
23388;SDS011;11867;51.198;11.966;2023-02-07T05:40:26;58.00;;;28.00;;
23388;SDS011;11867;51.198;11.966;2023-02-07T05:41:29;53.22;;;26.33;;
23388;SDS011;11867;51.198;11.966;2023-02-07T05:42:31;53.33;;;27.10;;
23388;SDS011;11867;51.198;11.966;2023-02-07T05:43:33;57.88;;;28.67;;
23388;SDS011;11867;51.198;11.966;2023-02-07T05:44:36;60.72;;;28.15;;
23388;SDS011;11867;51.198;11.966;2023-02-07T05:45:38;53.58;;;27.30;;
23388;SDS011;11867;51.198;11.966;2023-02-07T05:46:41;51.78;;;27.70;;
23388;SDS011;11867;51.198;11.966;2023-02-07T05:47:43;49.05;;;27.17;;
23388;SDS011;11867;51.198;11.966;2023-02-07T05:48:46;51.03;;;26.25;;
23388;SDS011;11867;51.198;11.966;2023-02-07T05:49:48;52.75;;;27.60;;
23388;SDS011;11867;51.198;11.966;2023-02-07T05:50:52;54.58;;;27.17;;
23388;SDS011;11867;51.198;11.966;2023-02-07T05:51:54;49.45;;;26.67;;
23388;SDS011;11867;51.198;11.966;2023-02-07T05:52:57;51.42;;;27.48;;
23388;SDS011;11867;51.198;11.966;2023-02-07T05:53:59;48.70;;;26.33;;
23388;SDS011;11867;51.198;11.966;2023-02-07T05:55:03;54.03;;;28.15;;
23388;SDS011;11867;51.198;11.966;2023-02-07T05:56:06;52.15;;;25.98;;
23388;SDS011;11867;51.198;11.966;2023-02-07T05:57:08;45.90;;;24.77;;
23388;SDS011;11867;51.198;11.966;2023-02-07T05:58:10;49.08;;;25.40;;
23388;SDS011;11867;51.198;11.966;2023-02-07T05:59:13;44.97;;;25.63;;
23388;SDS011;11867;51.198;11.966;2023-02-07T06:00:15;54.03;;;27.17;;
23388;SDS011;11867;51.198;11.966;2023-02-07T06:01:19;51.42;;;27.02;;
23388;SDS011;11867;51.198;11.966;2023-02-07T06:02:20;49.38;;;26.70;;
23388;SDS011;11867;51.198;11.966;2023-02-07T06:03:24;55.50;;;27.73;;
23388;SDS011;11867;51.198;11.966;2023-02-07T06:04:26;54.47;;;28.42;;
23388;SDS011;11867;51.198;11.966;2023-02-07T06:05:28;57.05;;;29.17;;
23388;SDS011;11867;51.198;11.966;2023-02-07T06:06:32;54.88;;;28.95;;
23388;SDS011;11867;51.198;11.966;2023-02-07T06:07:34;50.88;;;28.23;;
23388;SDS011;11867;51.198;11.966;2023-02-07T06:08:36;60.97;;;31.05;;
23388;SDS011;11867;51.198;11.966;2023-02-07T06:09:39;53.75;;;29.17;;
23388;SDS011;11867;51.198;11.966;2023-02-07T06:10:42;55.20;;;29.00;;
23388;SDS011;11867;51.198;11.966;2023-02-07T06:11:45;60.15;;;29.27;;
23388;SDS011;11867;51.198;11.966;2023-02-07T06:12:46;57.92;;;30.00;;
23388;SDS011;11867;51.198;11.966;2023-02-07T06:13:52;54.13;;;27.50;;
23388;SDS011;11867;51.198;11.966;2023-02-07T06:14:53;56.50;;;31.13;;
23388;SDS011;11867;51.198;11.966;2023-02-07T06:15:56;61.97;;;31.75;;
23388;SDS011;11867;51.198;11.966;2023-02-07T06:16:58;64.13;;;31.60;;
23388;SDS011;11867;51.198;11.966;2023-02-07T06:18:01;63.58;;;31.38;;
23388;SDS011;11867;51.198;11.966;2023-02-07T06:19:03;62.22;;;32.15;;
23388;SDS011;11867;51.198;11.966;2023-02-07T06:20:06;58.67;;;31.15;;
23388;SDS011;11867;51.198;11.966;2023-02-07T06:21:12;56.17;;;30.70;;